createdAt,value
2018-01-14T00:00:55.223Z,4.46
2018-01-14T00:01:55.197Z,4.39
2018-01-14T00:02:55.171Z,4.40
2018-01-14T00:03:55.154Z,4.27
2018-01-14T00:04:55.134Z,4.31
2018-01-14T00:05:55.102Z,4.38
2018-01-14T00:06:55.119Z,4.38
2018-01-14T00:07:55.055Z,4.36
2018-01-14T00:08:55.030Z,4.46
2018-01-14T00:09:55.002Z,4.49
2018-01-14T00:10:54.980Z,4.46
2018-01-14T00:11:54.952Z,4.42
2018-01-14T00:12:54.930Z,4.48
2018-01-14T00:13:54.903Z,4.48
2018-01-14T00:14:54.880Z,4.45
2018-01-14T00:15:54.853Z,4.49
2018-01-14T00:16:54.839Z,4.46
2018-01-14T00:17:54.808Z,4.52
2018-01-14T00:18:54.784Z,4.39
2018-01-14T00:19:54.760Z,4.48
2018-01-14T00:20:54.732Z,4.43
2018-01-14T00:21:54.719Z,4.36
2018-01-14T00:22:54.682Z,4.31
2018-01-14T00:23:54.671Z,4.38
2018-01-14T00:24:54.634Z,4.25
2018-01-14T00:25:54.618Z,4.31
2018-01-14T00:26:54.584Z,4.24
2018-01-14T00:27:54.561Z,4.25
2018-01-14T00:28:54.721Z,4.24
2018-01-14T00:29:54.519Z,4.28
2018-01-14T00:30:54.489Z,4.30
2018-01-14T00:31:54.521Z,4.27
2018-01-14T00:32:54.485Z,4.20
2018-01-14T00:33:54.414Z,4.31
2018-01-14T00:34:54.391Z,4.34
2018-01-14T00:35:54.365Z,4.25
2018-01-14T00:36:54.340Z,4.25
2018-01-14T00:37:54.320Z,4.21
2018-01-14T00:38:54.292Z,4.25
2018-01-14T00:39:54.265Z,4.27
2018-01-14T00:40:54.240Z,4.20
2018-01-14T00:41:54.216Z,4.22
2018-01-14T00:42:54.192Z,4.30
2018-01-14T00:43:54.170Z,4.22
2018-01-14T00:44:54.143Z,4.21
2018-01-14T00:45:54.119Z,4.20
2018-01-14T00:46:54.102Z,4.24
2018-01-14T00:47:54.068Z,4.24
2018-01-14T00:48:54.046Z,4.18
2018-01-14T00:49:54.026Z,4.18
2018-01-14T00:50:53.995Z,4.22
2018-01-14T00:51:53.970Z,4.28
2018-01-14T00:52:53.965Z,4.18
2018-01-14T00:53:53.922Z,4.27
2018-01-14T00:54:53.906Z,4.16
2018-01-14T00:55:53.870Z,4.21
2018-01-14T00:56:53.847Z,4.22
2018-01-14T00:57:53.825Z,4.34
2018-01-14T00:58:53.795Z,4.31
2018-01-14T00:59:53.775Z,4.31
2018-01-14T01:00:53.747Z,4.30
2018-01-14T01:01:53.724Z,4.27
2018-01-14T01:02:53.706Z,4.36
2018-01-14T01:03:53.680Z,4.14
2018-01-14T01:04:53.663Z,4.06
2018-01-14T01:05:53.622Z,4.00
2018-01-14T01:06:53.605Z,3.99
2018-01-14T01:07:53.642Z,4.07
2018-01-14T01:08:53.564Z,4.03
2018-01-14T01:09:53.528Z,4.12
2018-01-14T01:10:53.503Z,3.95
2018-01-14T01:11:53.478Z,3.99
2018-01-14T01:12:53.452Z,4.06
2018-01-14T01:13:53.426Z,3.96
2018-01-14T01:14:53.409Z,4.04
2018-01-14T01:15:53.381Z,3.96
2018-01-14T01:16:53.352Z,4.00
2018-01-14T01:17:53.327Z,3.95
2018-01-14T01:18:53.304Z,3.96
2018-01-14T01:19:53.278Z,3.91
2018-01-14T01:20:53.260Z,3.95
2018-01-14T01:21:53.232Z,3.94
2018-01-14T01:22:53.210Z,4.03
2018-01-14T01:23:53.176Z,3.99
2018-01-14T01:24:53.154Z,3.94
2018-01-14T01:25:53.135Z,3.94
2018-01-14T01:26:53.102Z,3.95
2018-01-14T01:27:53.085Z,4.02
2018-01-14T01:28:53.062Z,4.10
2018-01-14T01:29:53.166Z,3.96
2018-01-14T01:30:53.005Z,3.89
2018-01-14T01:31:52.979Z,3.92
2018-01-14T01:32:53.022Z,3.89
2018-01-14T01:33:52.930Z,3.85
2018-01-14T01:34:52.908Z,3.78
2018-01-14T01:35:52.930Z,3.82
2018-01-14T01:36:52.860Z,3.96
2018-01-14T01:37:52.833Z,3.92
2018-01-14T01:38:52.802Z,3.88
2018-01-14T01:39:52.779Z,3.88
2018-01-14T01:40:52.770Z,3.85
2018-01-14T01:41:52.730Z,3.89
2018-01-14T01:42:52.710Z,3.91
2018-01-14T01:43:52.719Z,3.92
2018-01-14T01:44:52.654Z,3.85
2018-01-14T01:45:52.627Z,3.86
2018-01-14T01:46:52.604Z,3.82
2018-01-14T01:47:52.578Z,3.71
2018-01-14T01:48:52.555Z,3.73
2018-01-14T01:49:52.528Z,3.85
2018-01-14T01:50:52.499Z,3.85
2018-01-14T01:51:52.478Z,3.73
2018-01-14T01:52:52.457Z,3.84
2018-01-14T01:53:52.430Z,3.82
2018-01-14T01:54:52.398Z,3.84
2018-01-14T01:55:52.382Z,3.81
2018-01-14T01:56:52.352Z,3.76
2018-01-14T01:57:52.327Z,3.85
2018-01-14T01:58:52.301Z,3.95
2018-01-14T01:59:52.276Z,3.92
2018-01-14T02:00:52.253Z,3.78
2018-01-14T02:01:52.231Z,3.74
2018-01-14T02:02:52.199Z,3.81
2018-01-14T02:03:52.184Z,3.82
2018-01-14T02:04:52.150Z,3.85
2018-01-14T02:05:52.135Z,3.92
2018-01-14T02:06:52.098Z,3.86
2018-01-14T02:07:52.075Z,3.85
2018-01-14T02:08:52.106Z,3.71
2018-01-14T02:09:52.027Z,3.84
2018-01-14T02:10:52.057Z,3.86
2018-01-14T02:11:52.025Z,3.89
2018-01-14T02:12:51.952Z,3.86
2018-01-14T02:13:51.922Z,3.88
2018-01-14T02:14:51.896Z,3.94
2018-01-14T02:15:51.874Z,3.84
2018-01-14T02:16:51.848Z,3.81
2018-01-14T02:17:51.824Z,3.81
2018-01-14T02:18:51.805Z,3.81
2018-01-14T02:19:51.772Z,3.81
2018-01-14T02:20:51.757Z,3.77
2018-01-14T02:21:51.725Z,3.78
2018-01-14T02:22:51.699Z,3.74
2018-01-14T02:23:51.672Z,3.73
2018-01-14T02:24:51.646Z,3.88
2018-01-14T02:25:51.623Z,3.78
2018-01-14T02:26:51.597Z,3.84
2018-01-14T02:27:51.572Z,3.76
2018-01-14T02:28:51.549Z,3.74
2018-01-14T02:29:51.543Z,3.85
2018-01-14T02:30:51.497Z,3.70
2018-01-14T02:31:51.472Z,3.76
2018-01-14T02:32:51.446Z,3.73
2018-01-14T02:33:51.421Z,3.85
2018-01-14T02:34:51.407Z,3.81
2018-01-14T02:35:51.373Z,3.74
2018-01-14T02:36:51.364Z,3.86
2018-01-14T02:37:51.321Z,3.68
2018-01-14T02:38:51.295Z,3.78
2018-01-14T02:39:51.271Z,3.73
2018-01-14T02:40:51.250Z,3.81
2018-01-14T02:41:51.258Z,3.70
2018-01-14T02:42:51.196Z,3.78
2018-01-14T02:43:51.172Z,3.77
2018-01-14T02:44:51.252Z,3.82
2018-01-14T02:45:51.123Z,3.70
2018-01-14T02:46:51.094Z,3.68
2018-01-14T02:47:51.073Z,3.74
2018-01-14T02:48:51.050Z,3.76
2018-01-14T02:49:51.020Z,3.73
2018-01-14T02:50:50.999Z,3.74
2018-01-14T02:51:50.972Z,3.78
2018-01-14T02:52:50.949Z,3.68
2018-01-14T02:53:50.929Z,3.66
2018-01-14T02:54:50.899Z,3.74
2018-01-14T02:55:50.871Z,3.71
2018-01-14T02:56:50.847Z,3.67
2018-01-14T02:57:50.819Z,3.61
2018-01-14T02:58:50.798Z,3.59
2018-01-14T02:59:50.771Z,3.64
2018-01-14T03:00:50.749Z,3.56
2018-01-14T03:01:50.721Z,3.59
2018-01-14T03:02:50.713Z,3.52
2018-01-14T03:03:50.671Z,3.52
2018-01-14T03:04:50.651Z,3.56
2018-01-14T03:05:50.617Z,3.50
2018-01-14T03:06:50.628Z,3.56
2018-01-14T03:07:50.567Z,3.56
2018-01-14T03:08:50.542Z,3.58
2018-01-14T03:09:50.672Z,3.49
2018-01-14T03:10:50.501Z,3.52
2018-01-14T03:11:50.469Z,3.55
2018-01-14T03:12:50.544Z,3.53
2018-01-14T03:13:50.416Z,3.67
2018-01-14T03:14:50.391Z,3.58
2018-01-14T03:15:50.365Z,3.61
2018-01-14T03:16:50.342Z,3.56
2018-01-14T03:17:50.316Z,3.58
2018-01-14T03:18:50.295Z,3.55
2018-01-14T03:19:50.265Z,3.50
2018-01-14T03:20:50.389Z,3.58
2018-01-14T03:21:50.211Z,3.55
2018-01-14T03:22:50.185Z,3.50
2018-01-14T03:23:50.214Z,3.52
2018-01-14T03:24:50.142Z,3.58
2018-01-14T03:25:50.109Z,3.53
2018-01-14T03:26:50.134Z,3.41
2018-01-14T03:27:50.059Z,3.46
2018-01-14T03:28:50.037Z,3.48
2018-01-14T03:29:50.008Z,3.40
2018-01-14T03:30:49.983Z,3.43
2018-01-14T03:31:49.956Z,3.52
2018-01-14T03:32:49.939Z,3.53
2018-01-14T03:33:49.906Z,3.46
2018-01-14T03:34:49.882Z,3.55
2018-01-14T03:35:49.855Z,3.58
2018-01-14T03:36:49.832Z,3.56
2018-01-14T03:37:49.805Z,3.52
2018-01-14T03:38:49.780Z,3.55
2018-01-14T03:39:49.753Z,3.55
2018-01-14T03:40:49.727Z,3.61
2018-01-14T03:41:49.702Z,3.56
2018-01-14T03:42:49.749Z,3.67
2018-01-14T03:43:49.663Z,3.63
2018-01-14T03:44:49.624Z,3.59
2018-01-14T03:45:49.623Z,3.59
2018-01-14T03:46:49.574Z,3.56
2018-01-14T03:47:49.552Z,3.58
2018-01-14T03:48:49.576Z,3.53
2018-01-14T03:49:49.502Z,3.53
2018-01-14T03:50:49.474Z,3.61
2018-01-14T03:51:49.454Z,3.59
2018-01-14T03:52:49.423Z,3.59
2018-01-14T03:53:49.401Z,3.61
2018-01-14T03:54:49.373Z,3.49
2018-01-14T03:55:49.345Z,3.53
2018-01-14T03:56:49.327Z,3.36
2018-01-14T03:57:49.305Z,3.40
2018-01-14T03:58:49.279Z,3.41
2018-01-14T03:59:49.244Z,3.46
2018-01-14T04:00:49.220Z,3.43
2018-01-14T04:01:49.202Z,3.41
2018-01-14T04:02:49.172Z,3.49
2018-01-14T04:03:49.144Z,3.48
2018-01-14T04:04:49.119Z,3.53
2018-01-14T04:05:49.092Z,3.52
2018-01-14T04:06:49.069Z,3.56
2018-01-14T04:07:49.043Z,3.53
2018-01-14T04:08:49.018Z,3.53
2018-01-14T04:09:48.990Z,3.58
2018-01-14T04:10:48.967Z,3.56
2018-01-14T04:11:48.941Z,3.49
2018-01-14T04:12:48.918Z,3.48
2018-01-14T04:13:48.890Z,3.48
2018-01-14T04:14:48.862Z,3.41
2018-01-14T04:15:48.847Z,3.46
2018-01-14T04:16:48.818Z,3.40
2018-01-14T04:17:48.788Z,3.41
2018-01-14T04:18:48.767Z,3.48
2018-01-14T04:19:48.737Z,3.45
2018-01-14T04:20:48.711Z,3.48
2018-01-14T04:21:48.712Z,3.46
2018-01-14T04:22:48.661Z,3.58
2018-01-14T04:23:48.647Z,3.56
2018-01-14T04:24:48.611Z,3.58
2018-01-14T04:25:48.587Z,3.50
2018-01-14T04:26:48.558Z,3.40
2018-01-14T04:27:48.540Z,3.53
2018-01-14T04:28:48.516Z,3.48
2018-01-14T04:29:48.484Z,3.49
2018-01-14T04:30:48.463Z,3.33
2018-01-14T04:31:48.434Z,3.41
2018-01-14T04:32:48.408Z,3.41
2018-01-14T04:33:48.386Z,3.45
2018-01-14T04:34:48.358Z,3.41
2018-01-14T04:35:48.333Z,3.34
2018-01-14T04:36:48.307Z,3.48
2018-01-14T04:37:48.282Z,3.41
2018-01-14T04:38:48.255Z,3.50
2018-01-14T04:39:48.234Z,3.48
2018-01-14T04:40:48.203Z,3.49
2018-01-14T04:41:48.178Z,3.50
2018-01-14T04:42:48.154Z,3.41
2018-01-14T04:43:48.213Z,3.48
2018-01-14T04:44:48.104Z,3.43
2018-01-14T04:45:48.087Z,3.40
2018-01-14T04:46:48.067Z,3.43
2018-01-14T04:47:48.027Z,3.36
2018-01-14T04:48:48.022Z,3.40
2018-01-14T04:49:47.977Z,3.33
2018-01-14T04:50:47.953Z,3.37
2018-01-14T04:51:47.928Z,3.41
2018-01-14T04:52:47.903Z,3.37
2018-01-14T04:53:47.876Z,3.33
2018-01-14T04:54:47.851Z,3.37
2018-01-14T04:55:47.823Z,3.27
2018-01-14T04:56:47.802Z,3.27
2018-01-14T04:57:47.772Z,3.40
2018-01-14T04:58:47.746Z,3.37
2018-01-14T04:59:47.724Z,3.36
2018-01-14T05:00:47.733Z,3.36
2018-01-14T05:01:47.671Z,3.43
2018-01-14T05:02:47.645Z,3.41
2018-01-14T05:03:47.622Z,3.40
2018-01-14T05:04:47.595Z,3.24
2018-01-14T05:05:47.576Z,3.30
2018-01-14T05:06:47.549Z,3.40
2018-01-14T05:07:47.520Z,3.33
2018-01-14T05:08:47.493Z,3.40
2018-01-14T05:09:47.472Z,3.37
2018-01-14T05:10:47.443Z,3.41
2018-01-14T05:11:47.421Z,3.29
2018-01-14T05:12:47.392Z,3.41
2018-01-14T05:13:47.366Z,3.37
2018-01-14T05:14:47.341Z,3.33
2018-01-14T05:15:47.320Z,3.33
2018-01-14T05:16:47.302Z,3.37
2018-01-14T05:17:47.264Z,3.45
2018-01-14T05:18:47.239Z,3.41
2018-01-14T05:19:47.270Z,3.37
2018-01-14T05:20:47.189Z,3.41
2018-01-14T05:21:47.162Z,3.41
2018-01-14T05:22:47.208Z,3.41
2018-01-14T05:23:47.109Z,3.41
2018-01-14T05:24:47.088Z,3.43
2018-01-14T05:25:47.063Z,3.40
2018-01-14T05:26:47.038Z,3.37
2018-01-14T05:27:47.012Z,3.27
2018-01-14T05:28:46.987Z,3.36
2018-01-14T05:29:46.976Z,3.37
2018-01-14T05:30:46.937Z,3.33
2018-01-14T05:31:46.910Z,3.30
2018-01-14T05:32:46.887Z,3.26
2018-01-14T05:33:46.857Z,3.33
2018-01-14T05:34:46.834Z,3.29
2018-01-14T05:35:46.806Z,3.45
2018-01-14T05:36:46.782Z,3.37
2018-01-14T05:37:46.755Z,3.34
2018-01-14T05:38:46.727Z,3.30
2018-01-14T05:39:46.707Z,3.40
2018-01-14T05:40:46.678Z,3.31
2018-01-14T05:41:46.658Z,3.31
2018-01-14T05:42:46.625Z,3.37
2018-01-14T05:43:46.606Z,3.33
2018-01-14T05:44:46.577Z,3.26
2018-01-14T05:45:46.550Z,3.30
2018-01-14T05:46:46.526Z,3.33
2018-01-14T05:47:46.499Z,3.43
2018-01-14T05:48:46.476Z,3.43
2018-01-14T05:49:46.446Z,3.37
2018-01-14T05:50:46.425Z,3.41
2018-01-14T05:51:46.398Z,3.34
2018-01-14T05:52:46.374Z,3.26
2018-01-14T05:53:46.347Z,3.34
2018-01-14T05:54:46.325Z,3.33
2018-01-14T05:55:46.322Z,3.26
2018-01-14T05:56:46.269Z,3.22
2018-01-14T05:57:46.245Z,3.40
2018-01-14T05:58:46.321Z,3.30
2018-01-14T05:59:46.230Z,3.18
2018-01-14T06:00:46.169Z,3.19
2018-01-14T06:01:46.145Z,3.29
2018-01-14T06:02:46.116Z,3.16
2018-01-14T06:03:46.093Z,3.16
2018-01-14T06:04:46.066Z,3.26
2018-01-14T06:05:46.038Z,3.16
2018-01-14T06:06:46.033Z,3.22
2018-01-14T06:07:45.987Z,3.18
2018-01-14T06:08:45.962Z,3.27
2018-01-14T06:09:45.942Z,3.26
2018-01-14T06:10:45.911Z,3.31
2018-01-14T06:11:45.890Z,3.31
2018-01-14T06:12:45.856Z,3.27
2018-01-14T06:13:45.830Z,3.31
2018-01-14T06:14:45.806Z,3.36
2018-01-14T06:15:45.782Z,3.34
2018-01-14T06:16:45.757Z,3.26
2018-01-14T06:17:45.730Z,3.36
2018-01-14T06:18:45.711Z,3.31
2018-01-14T06:19:45.696Z,3.29
2018-01-14T06:20:45.661Z,3.19
2018-01-14T06:21:45.635Z,3.27
2018-01-14T06:22:45.600Z,3.30
2018-01-14T06:23:45.737Z,3.30
2018-01-14T06:24:45.552Z,3.41
2018-01-14T06:25:45.524Z,3.33
2018-01-14T06:26:45.509Z,3.34
2018-01-14T06:27:45.475Z,3.43
2018-01-14T06:28:45.449Z,3.24
2018-01-14T06:29:45.423Z,3.36
2018-01-14T06:30:45.399Z,3.16
2018-01-14T06:31:45.372Z,3.19
2018-01-14T06:32:45.348Z,3.18
2018-01-14T06:33:45.319Z,3.18
2018-01-14T06:34:45.293Z,3.16
2018-01-14T06:35:45.268Z,3.29
2018-01-14T06:36:45.244Z,3.29
2018-01-14T06:37:45.263Z,3.19
2018-01-14T06:38:45.193Z,3.21
2018-01-14T06:39:45.167Z,3.12
2018-01-14T06:40:45.208Z,3.21
2018-01-14T06:41:45.117Z,3.16
2018-01-14T06:42:45.094Z,3.21
2018-01-14T06:43:45.067Z,3.22
2018-01-14T06:44:45.041Z,3.26
2018-01-14T06:45:45.010Z,3.21
2018-01-14T06:46:44.987Z,3.29
2018-01-14T06:47:44.962Z,3.24
2018-01-14T06:48:44.939Z,3.21
2018-01-14T06:49:44.913Z,3.36
2018-01-14T06:50:44.887Z,3.21
2018-01-14T06:51:44.859Z,3.18
2018-01-14T06:52:44.836Z,3.21
2018-01-14T06:53:44.811Z,3.19
2018-01-14T06:54:44.781Z,3.18
2018-01-14T06:55:44.756Z,3.18
2018-01-14T06:56:44.731Z,3.24
2018-01-14T06:57:44.713Z,3.30
2018-01-14T06:58:44.681Z,3.13
2018-01-14T06:59:44.739Z,3.29
2018-01-14T07:00:44.645Z,3.27
2018-01-14T07:01:44.604Z,3.30
2018-01-14T07:02:44.588Z,3.34
2018-01-14T07:03:44.553Z,3.18
2018-01-14T07:04:44.529Z,3.22
2018-01-14T07:05:44.506Z,3.16
2018-01-14T07:06:44.473Z,3.16
2018-01-14T07:07:44.457Z,3.09
2018-01-14T07:08:44.433Z,3.05
2018-01-14T07:09:44.400Z,3.00
2018-01-14T07:10:44.380Z,3.08
2018-01-14T07:11:44.355Z,3.21
2018-01-14T07:12:44.324Z,3.16
2018-01-14T07:13:44.295Z,3.16
2018-01-14T07:14:44.273Z,3.21
2018-01-14T07:15:44.245Z,3.16
2018-01-14T07:16:44.223Z,3.15
2018-01-14T07:17:44.193Z,3.13
2018-01-14T07:18:44.170Z,3.16
2018-01-14T07:19:44.142Z,3.19
2018-01-14T07:20:44.115Z,3.15
2018-01-14T07:21:44.098Z,3.19
2018-01-14T07:22:44.068Z,3.21
2018-01-14T07:23:44.042Z,3.13
2018-01-14T07:24:44.014Z,3.13
2018-01-14T07:25:43.988Z,3.16
2018-01-14T07:26:43.964Z,3.11
2018-01-14T07:27:43.941Z,3.09
2018-01-14T07:28:43.912Z,3.15
2018-01-14T07:29:43.899Z,3.06
2018-01-14T07:30:43.860Z,3.06
2018-01-14T07:31:43.834Z,3.09
2018-01-14T07:32:43.819Z,3.09
2018-01-14T07:33:43.781Z,3.09
2018-01-14T07:34:43.755Z,3.01
2018-01-14T07:35:43.760Z,2.97
2018-01-14T07:36:43.722Z,3.08
2018-01-14T07:37:43.679Z,3.21
2018-01-14T07:38:43.765Z,3.18
2018-01-14T07:39:43.659Z,3.08
2018-01-14T07:40:43.603Z,3.05
2018-01-14T07:41:43.584Z,3.06
2018-01-14T07:42:43.550Z,3.03
2018-01-14T07:43:43.524Z,3.12
2018-01-14T07:44:43.549Z,3.19
2018-01-14T07:45:43.472Z,3.19
2018-01-14T07:46:43.446Z,3.21
2018-01-14T07:47:43.420Z,3.13
2018-01-14T07:48:43.398Z,3.16
2018-01-14T07:49:43.376Z,3.19
2018-01-14T07:50:43.344Z,3.26
2018-01-14T07:51:43.337Z,3.16
2018-01-14T07:52:43.302Z,3.26
2018-01-14T07:53:43.269Z,3.16
2018-01-14T07:54:43.251Z,3.19
2018-01-14T07:55:43.216Z,3.15
2018-01-14T07:56:43.189Z,3.16
2018-01-14T07:57:43.162Z,3.08
2018-01-14T07:58:43.137Z,3.09
2018-01-14T07:59:43.111Z,3.03
2018-01-14T08:00:43.094Z,3.03
2018-01-14T08:01:43.058Z,3.08
2018-01-14T08:02:43.037Z,2.97
2018-01-14T08:03:43.023Z,2.97
2018-01-14T08:04:42.988Z,3.00
2018-01-14T08:05:42.957Z,3.05
2018-01-14T08:06:42.979Z,3.09
2018-01-14T08:07:42.907Z,3.13
2018-01-14T08:08:42.889Z,3.16
2018-01-14T08:09:42.858Z,3.19
2018-01-14T08:10:42.837Z,3.30
2018-01-14T08:11:42.818Z,3.34
2018-01-14T08:12:42.785Z,3.41
2018-01-14T08:13:42.751Z,3.26
2018-01-14T08:14:42.799Z,3.27
2018-01-14T08:15:42.701Z,3.19
2018-01-14T08:16:42.674Z,3.21
2018-01-14T08:17:42.719Z,3.18
2018-01-14T08:18:42.623Z,3.16
2018-01-14T08:19:42.598Z,3.13
2018-01-14T08:20:42.575Z,3.06
2018-01-14T08:21:42.551Z,3.15
2018-01-14T08:22:42.526Z,3.06
2018-01-14T08:23:42.510Z,3.13
2018-01-14T08:24:42.470Z,3.19
2018-01-14T08:25:42.444Z,3.11
2018-01-14T08:26:42.416Z,3.09
2018-01-14T08:27:42.393Z,3.13
2018-01-14T08:28:42.366Z,3.15
2018-01-14T08:29:42.344Z,3.18
2018-01-14T08:30:42.316Z,3.18
2018-01-14T08:31:42.288Z,3.15
2018-01-14T08:32:42.264Z,3.22
2018-01-14T08:33:42.238Z,3.19
2018-01-14T08:34:42.212Z,3.29
2018-01-14T08:35:42.187Z,3.18
2018-01-14T08:36:42.166Z,3.16
2018-01-14T08:37:42.142Z,3.29
2018-01-14T08:38:42.115Z,3.26
2018-01-14T08:39:42.102Z,3.27
2018-01-14T08:40:42.064Z,3.36
2018-01-14T08:41:42.034Z,3.34
2018-01-14T08:42:42.030Z,3.15
2018-01-14T08:43:41.982Z,3.13
2018-01-14T08:44:41.956Z,3.18
2018-01-14T08:45:42.032Z,3.16
2018-01-14T08:46:41.906Z,3.15
2018-01-14T08:47:41.880Z,3.24
2018-01-14T08:48:41.857Z,3.19
2018-01-14T08:49:41.829Z,3.19
2018-01-14T08:50:41.810Z,3.16
2018-01-14T08:51:41.785Z,3.21
2018-01-14T08:52:41.752Z,3.19
2018-01-14T08:53:41.724Z,3.27
2018-01-14T08:54:41.701Z,3.33
2018-01-14T08:55:41.691Z,3.31
2018-01-14T08:56:41.653Z,3.16
2018-01-14T08:57:41.625Z,3.24
2018-01-14T08:58:41.600Z,3.24
2018-01-14T08:59:41.574Z,3.40
2018-01-14T09:00:41.551Z,3.31
2018-01-14T09:01:41.521Z,3.36
2018-01-14T09:02:41.503Z,3.30
2018-01-14T09:03:41.469Z,3.37
2018-01-14T09:04:41.457Z,3.31
2018-01-14T09:05:41.431Z,3.37
2018-01-14T09:06:41.393Z,3.37
2018-01-14T09:07:41.368Z,3.31
2018-01-14T09:08:41.341Z,3.43
2018-01-14T09:09:41.321Z,3.33
2018-01-14T09:10:41.305Z,3.40
2018-01-14T09:11:41.298Z,3.46
2018-01-14T09:12:41.242Z,3.24
2018-01-14T09:13:41.217Z,3.29
2018-01-14T09:14:41.193Z,3.37
2018-01-14T09:15:41.173Z,3.43
2018-01-14T09:16:41.141Z,3.48
2018-01-14T09:17:41.117Z,3.52
2018-01-14T09:18:41.091Z,3.41
2018-01-14T09:19:41.090Z,3.41
2018-01-14T09:20:41.042Z,3.41
2018-01-14T09:21:41.017Z,3.34
2018-01-14T09:22:40.990Z,3.43
2018-01-14T09:23:40.970Z,3.49
2018-01-14T09:24:40.940Z,3.58
2018-01-14T09:25:40.914Z,3.53
2018-01-14T09:26:40.891Z,3.58
2018-01-14T09:27:40.865Z,3.56
2018-01-14T09:28:40.840Z,3.53
2018-01-14T09:29:40.814Z,3.64
2018-01-14T09:30:40.787Z,3.61
2018-01-14T09:31:40.768Z,3.58
2018-01-14T09:32:40.736Z,3.70
2018-01-14T09:33:40.728Z,3.58
2018-01-14T09:34:40.688Z,3.67
2018-01-14T09:35:40.664Z,3.66
2018-01-14T09:36:40.637Z,3.68
2018-01-14T09:37:40.615Z,3.73
2018-01-14T09:38:40.593Z,3.81
2018-01-14T09:39:40.562Z,3.67
2018-01-14T09:40:40.536Z,3.67
2018-01-14T09:41:40.514Z,3.76
2018-01-14T09:42:40.493Z,3.66
2018-01-14T09:43:40.642Z,3.64
2018-01-14T09:44:40.451Z,3.70
2018-01-14T09:45:40.413Z,3.76
2018-01-14T09:46:40.399Z,3.76
2018-01-14T09:47:40.367Z,3.82
2018-01-14T09:48:40.343Z,3.73
2018-01-14T09:49:40.313Z,3.71
2018-01-14T09:50:40.285Z,3.84
2018-01-14T09:51:40.261Z,3.78
2018-01-14T09:52:40.234Z,3.84
2018-01-14T09:53:40.213Z,3.91
2018-01-14T09:54:40.207Z,3.99
2018-01-14T09:55:40.172Z,3.95
2018-01-14T09:56:40.141Z,3.99
2018-01-14T09:57:40.127Z,4.04
2018-01-14T09:58:40.086Z,4.14
2018-01-14T09:59:40.061Z,4.20
2018-01-14T10:00:40.037Z,4.18
2018-01-14T10:01:40.032Z,4.21
2018-01-14T10:02:39.988Z,4.21
2018-01-14T10:03:39.970Z,4.16
2018-01-14T10:04:39.941Z,4.22
2018-01-14T10:05:39.915Z,4.22
2018-01-14T10:06:39.889Z,4.21
2018-01-14T10:07:39.864Z,4.22
2018-01-14T10:08:39.840Z,4.30
2018-01-14T10:09:39.816Z,4.34
2018-01-14T10:10:39.792Z,4.32
2018-01-14T10:11:39.771Z,4.24
2018-01-14T10:12:39.756Z,4.25
2018-01-14T10:13:39.718Z,4.25
2018-01-14T10:14:39.699Z,4.43
2018-01-14T10:15:39.668Z,4.48
2018-01-14T10:16:39.661Z,4.32
2018-01-14T10:17:39.619Z,4.24
2018-01-14T10:18:39.599Z,4.27
2018-01-14T10:19:39.682Z,4.38
2018-01-14T10:20:39.552Z,4.32
2018-01-14T10:21:39.522Z,4.43
2018-01-14T10:22:39.542Z,4.28
2018-01-14T10:23:39.474Z,4.40
2018-01-14T10:24:39.453Z,4.39
2018-01-14T10:25:39.427Z,4.40
2018-01-14T10:26:39.400Z,4.36
2018-01-14T10:27:39.387Z,4.27
2018-01-14T10:28:39.365Z,4.28
2018-01-14T10:29:39.339Z,4.32
2018-01-14T10:30:39.307Z,4.34
2018-01-14T10:31:39.280Z,4.36
2018-01-14T10:32:39.276Z,4.40
2018-01-14T10:33:39.240Z,4.21
2018-01-14T10:34:39.225Z,4.07
2018-01-14T10:35:39.184Z,4.12
2018-01-14T10:36:39.162Z,4.09
2018-01-14T10:37:39.141Z,4.20
2018-01-14T10:38:39.110Z,4.22
2018-01-14T10:39:39.102Z,4.24
2018-01-14T10:40:39.074Z,4.27
2018-01-14T10:41:39.044Z,4.22
2018-01-14T10:42:39.024Z,4.22
2018-01-14T10:43:39.008Z,4.13
2018-01-14T10:44:38.963Z,4.21
2018-01-14T10:45:38.940Z,4.24
2018-01-14T10:46:38.916Z,4.16
2018-01-14T10:47:38.889Z,4.38
2018-01-14T10:48:38.871Z,4.32
2018-01-14T10:49:38.855Z,4.34
2018-01-14T10:50:38.819Z,4.27
2018-01-14T10:51:38.806Z,4.34
2018-01-14T10:52:38.798Z,4.31
2018-01-14T10:53:38.749Z,4.50
2018-01-14T10:54:38.743Z,4.48
2018-01-14T10:55:38.853Z,4.53
2018-01-14T10:56:38.692Z,4.46
2018-01-14T10:57:38.658Z,4.34
2018-01-14T10:58:38.643Z,4.38
2018-01-14T10:59:38.606Z,4.39
2018-01-14T11:00:38.587Z,4.49
2018-01-14T11:01:38.564Z,4.52
2018-01-14T11:02:38.532Z,4.67
2018-01-14T11:03:38.513Z,4.79
2018-01-14T11:04:38.487Z,4.89
2018-01-14T11:05:38.456Z,4.83
2018-01-14T11:06:38.438Z,4.83
2018-01-14T11:07:38.415Z,4.76
2018-01-14T11:08:38.392Z,4.60
2018-01-14T11:09:38.374Z,4.71
2018-01-14T11:10:38.353Z,4.78
2018-01-14T11:11:38.327Z,4.78
2018-01-14T11:12:38.297Z,4.86
2018-01-14T11:13:38.274Z,4.97
2018-01-14T11:14:38.265Z,4.98
2018-01-14T11:15:38.227Z,4.95
2018-01-14T11:16:38.199Z,4.76
2018-01-14T11:17:38.306Z,4.71
2018-01-14T11:18:38.154Z,4.84
2018-01-14T11:19:38.138Z,4.94
2018-01-14T11:20:38.188Z,4.94
2018-01-14T11:21:38.083Z,4.83
2018-01-14T11:22:38.060Z,4.74
2018-01-14T11:23:38.040Z,4.86
2018-01-14T11:24:38.023Z,5.05
2018-01-14T11:25:37.999Z,5.08
2018-01-14T11:26:37.973Z,5.16
2018-01-14T11:27:37.938Z,4.92
2018-01-14T11:28:37.945Z,5.13
2018-01-14T11:29:37.897Z,5.15
2018-01-14T11:30:37.877Z,5.10
2018-01-14T11:31:37.855Z,5.15
2018-01-14T11:32:37.833Z,5.18
2018-01-14T11:33:37.830Z,5.15
2018-01-14T11:34:37.873Z,5.05
2018-01-14T11:35:37.756Z,5.12
2018-01-14T11:36:37.730Z,5.16
2018-01-14T11:37:37.710Z,5.28
2018-01-14T11:38:37.682Z,5.36
2018-01-14T11:39:37.660Z,5.20
2018-01-14T11:40:37.638Z,5.28
2018-01-14T11:41:37.617Z,5.12
2018-01-14T11:42:37.602Z,5.10
2018-01-14T11:43:37.572Z,5.29
2018-01-14T11:44:37.550Z,5.23
2018-01-14T11:45:37.534Z,5.23
2018-01-14T11:46:37.508Z,5.12
2018-01-14T11:47:37.484Z,5.07
2018-01-14T11:48:37.458Z,5.12
2018-01-14T11:49:37.452Z,5.16
2018-01-14T11:50:37.455Z,5.34
2018-01-14T11:51:37.386Z,5.22
2018-01-14T11:52:37.362Z,5.26
2018-01-14T11:53:37.353Z,5.26
2018-01-14T11:54:37.316Z,5.29
2018-01-14T11:55:37.301Z,5.36
2018-01-14T11:56:37.291Z,5.44
2018-01-14T11:57:37.246Z,5.54
2018-01-14T11:58:37.227Z,5.44
2018-01-14T11:59:37.205Z,5.47
2018-01-14T12:00:37.177Z,5.26
2018-01-14T12:01:37.165Z,5.25
2018-01-14T12:02:37.130Z,5.38
2018-01-14T12:03:37.138Z,5.43
2018-01-14T12:04:37.083Z,5.34
2018-01-14T12:05:37.071Z,5.49
2018-01-14T12:06:37.083Z,5.84
2018-01-14T12:07:37.018Z,6.15
2018-01-14T12:08:36.994Z,6.01
2018-01-14T12:09:36.982Z,6.02
2018-01-14T12:10:36.946Z,6.10
2018-01-14T12:11:36.930Z,6.26
2018-01-14T12:12:36.931Z,6.47
2018-01-14T12:13:36.896Z,6.52
2018-01-14T12:14:36.857Z,6.52
2018-01-14T12:15:36.834Z,6.67
2018-01-14T12:16:36.837Z,6.13
2018-01-14T12:17:36.803Z,6.07
2018-01-14T12:18:36.769Z,6.05
2018-01-14T12:19:36.756Z,6.12
2018-01-14T12:20:36.716Z,6.17
2018-01-14T12:21:36.707Z,6.60
2018-01-14T12:22:36.675Z,6.92
2018-01-14T12:23:36.661Z,7.22
2018-01-14T12:24:36.629Z,6.72
2018-01-14T12:25:36.611Z,6.70
2018-01-14T12:26:36.671Z,6.59
2018-01-14T12:27:36.564Z,6.56
2018-01-14T12:28:36.541Z,6.34
2018-01-14T12:29:36.530Z,6.20
2018-01-14T12:30:36.493Z,6.47
2018-01-14T12:31:36.471Z,6.29
2018-01-14T12:32:36.440Z,6.53
2018-01-14T12:33:36.421Z,6.67
2018-01-14T12:34:36.395Z,6.89
2018-01-14T12:35:36.369Z,6.82
2018-01-14T12:36:36.350Z,6.72
2018-01-14T12:37:36.323Z,6.68
2018-01-14T12:38:36.300Z,6.64
2018-01-14T12:39:36.279Z,6.59
2018-01-14T12:40:36.262Z,6.74
2018-01-14T12:41:36.251Z,6.93
2018-01-14T12:42:36.210Z,7.03
2018-01-14T12:43:36.209Z,7.21
2018-01-14T12:44:36.162Z,6.86
2018-01-14T12:45:36.154Z,6.72
2018-01-14T12:46:36.116Z,6.49
2018-01-14T12:47:36.107Z,6.28
2018-01-14T12:48:36.078Z,6.13
2018-01-14T12:49:36.054Z,6.02
2018-01-14T12:50:36.028Z,6.09
2018-01-14T12:51:36.088Z,6.25
2018-01-14T12:52:35.978Z,6.13
2018-01-14T12:53:35.950Z,5.97
2018-01-14T12:54:35.956Z,6.01
2018-01-14T12:55:35.932Z,6.01
2018-01-14T12:56:35.881Z,6.01
2018-01-14T12:57:35.857Z,5.95
2018-01-14T12:58:35.852Z,5.73
2018-01-14T12:59:35.813Z,5.72
2018-01-14T13:00:35.798Z,5.65
2018-01-14T13:01:35.768Z,5.64
2018-01-14T13:02:35.754Z,5.70
2018-01-14T13:03:35.719Z,5.64
2018-01-14T13:04:35.706Z,5.61
2018-01-14T13:05:35.677Z,5.76
2018-01-14T13:06:35.698Z,5.65
2018-01-14T13:07:35.632Z,5.61
2018-01-14T13:08:35.606Z,5.84
2018-01-14T13:09:35.587Z,5.72
2018-01-14T13:10:35.572Z,5.76
2018-01-14T13:11:35.542Z,5.74
2018-01-14T13:12:35.508Z,5.73
2018-01-14T13:13:35.486Z,5.74
2018-01-14T13:14:35.474Z,5.55
2018-01-14T13:15:35.439Z,5.65
2018-01-14T13:16:35.423Z,5.72
2018-01-14T13:17:35.393Z,5.76
2018-01-14T13:18:35.375Z,5.69